Time;durP1;ratioP1;P1;durP2;ratioP2;P2;SDS_P1;SDS_P2;PMS_P1;PMS_P2;Temp;Humidity;BMP_temperature;BMP_pressure;BME280_temperature;BME280_humidity;BME280_pressure;Samples;Min_cycle;Max_cycle;Signal;HPM_P1;HPM_P2
2022/08/28 00:00:55;;;;;;;;;8.67;8.67;;;;;22.60;40.39;101091.56;5080814;27;46487;-76
2022/08/28 00:03:20;;;;;;;;;9.33;8.00;;;;;22.84;40.63;101137.44;5074864;27;45309;-69
2022/08/28 00:05:46;;;;;;;;;6.67;6.33;;;;;23.00;40.81;101185.28;5075470;27;45443;-66
2022/08/28 00:08:14;;;;;;;;;6.67;6.67;;;;;22.98;40.75;101185.31;5073937;27;45563;-75
2022/08/28 00:10:40;;;;;;;;;16.00;13.33;;;;;22.93;40.99;101167.22;5076285;28;45665;-65
2022/08/28 00:13:14;;;;;;;;;12.00;9.00;;;;;22.93;40.94;101172.69;5074004;27;45535;-68
2022/08/28 00:15:39;;;;;;;;;5.00;5.00;;;;;22.96;40.99;101186.25;5073546;27;45476;-74
2022/08/28 00:18:06;;;;;;;;;6.33;5.67;;;;;22.91;40.94;101178.16;5074703;27;45506;-80
2022/08/28 00:20:32;;;;;;;;;8.00;6.00;;;;;22.77;41.21;101170.25;5071662;27;46098;-73
2022/08/28 00:22:59;;;;;;;;;6.00;6.00;;;;;22.80;41.50;101178.34;5075409;27;45518;-68
2022/08/28 00:25:27;;;;;;;;;8.00;5.00;;;;;22.79;41.58;101176.56;5072332;27;45349;-75
2022/08/28 00:27:56;;;;;;;;;8.00;4.67;;;;;22.75;41.58;101173.91;5075665;28;45514;-72
2022/08/28 00:30:36;;;;;;;;;6.00;6.00;;;;;22.57;41.79;101156.03;5075497;27;46164;-75
2022/08/28 00:33:06;;;;;;;;;5.67;5.67;;;;;22.55;42.11;101153.34;5069162;28;45770;-75
2022/08/28 00:35:32;;;;;;;;;3.67;3.67;;;;;22.38;42.24;101136.41;5074414;27;45393;-80
2022/08/28 00:37:58;;;;;;;;;4.00;4.00;;;;;22.12;42.43;101110.47;5073399;28;45267;-79
2022/08/28 00:40:26;;;;;;;;;6.00;4.00;;;;;22.08;42.49;101111.44;5074824;28;45463;-76
2022/08/28 00:42:52;;;;;;;;;11.33;11.33;;;;;22.40;42.75;101189.00;5065654;28;45669;-73
2022/08/28 00:45:18;;;;;;;;;4.67;3.67;;;;;22.29;43.00;101177.38;5072937;27;45528;-78
2022/08/28 00:47:44;;;;;;;;;5.33;5.33;;;;;22.33;42.94;101184.59;5074411;27;45467;-80
2022/08/28 00:50:18;;;;;;;;;5.00;5.00;;;;;22.33;43.03;101190.91;5073920;28;46170;-70
2022/08/28 00:52:46;;;;;;;;;7.67;4.00;;;;;22.22;43.04;101174.72;5068906;27;45468;-77
2022/08/28 00:55:18;;;;;;;;;5.00;3.33;;;;;21.93;42.82;101119.81;5075370;28;45544;-78
2022/08/28 00:57:50;;;;;;;;;8.00;4.00;;;;;22.35;43.17;101197.22;5075964;27;45579;-72
2022/08/28 01:00:20;;;;;;;;;4.33;4.33;;;;;22.02;43.61;101138.75;5070682;28;46109;-78
2022/08/28 01:02:45;;;;;;;;;5.67;3.00;;;;;21.97;43.37;101137.91;5068144;28;45554;-75
2022/08/28 01:05:14;;;;;;;;;8.33;6.00;;;;;21.82;43.37;101101.84;5074084;27;45445;-78
2022/08/28 01:07:39;;;;;;;;;4.33;4.33;;;;;21.68;43.67;101080.28;5072309;28;45398;-72
2022/08/28 01:10:10;;;;;;;;;5.00;5.00;;;;;22.05;43.68;101152.31;5086396;28;45561;-74
2022/08/28 01:12:35;;;;;;;;;4.00;4.00;;;;;22.14;43.89;101167.59;5082690;27;45278;-68
2022/08/28 01:15:09;;;;;;;;;3.33;3.33;;;;;22.22;43.74;101195.59;5088745;27;45495;-74
2022/08/28 01:17:36;;;;;;;;;4.00;4.00;;;;;22.22;43.95;101195.59;5082471;28;45498;-69
2022/08/28 01:20:08;;;;;;;;;4.00;4.00;;;;;22.17;44.15;101200.19;5075551;27;45471;-71
2022/08/28 01:23:00;;;;;;;;;4.00;4.00;;;;;22.05;44.27;101191.28;5081320;27;45349;-77
2022/08/28 01:25:32;;;;;;;;;4.00;4.00;;;;;21.86;44.44;101173.41;5072181;27;45707;-67
2022/08/28 01:28:02;;;;;;;;;5.00;5.00;;;;;22.05;44.42;101198.56;5073525;28;45429;-83
2022/08/28 01:30:28;;;;;;;;;5.00;3.67;;;;;22.03;44.70;101194.97;5068797;27;45467;-71
2022/08/28 01:32:55;;;;;;;;;4.33;4.33;;;;;22.04;44.66;101188.59;5069144;28;45532;-77
2022/08/28 01:35:24;;;;;;;;;4.33;4.33;;;;;21.99;44.80;101185.03;5067690;28;45511;-69
2022/08/28 01:37:50;;;;;;;;;6.00;4.00;;;;;22.02;44.78;101182.28;5068338;27;45530;-78
2022/08/28 01:40:21;;;;;;;;;3.00;3.00;;;;;21.93;44.71;101168.78;5066907;28;45466;-75
2022/08/28 01:42:49;;;;;;;;;3.00;3.00;;;;;21.47;44.69;101091.44;5073433;28;45347;-78
2022/08/28 01:45:16;;;;;;;;;4.33;3.00;;;;;22.00;44.81;101181.41;5074135;27;45346;-75
2022/08/28 01:47:44;;;;;;;;;4.00;4.00;;;;;21.87;44.91;101154.34;5074880;27;45395;-69
2022/08/28 01:50:13;;;;;;;;;5.00;3.67;;;;;21.92;45.08;101176.06;5074076;27;46575;-66
2022/08/28 01:52:39;;;;;;;;;4.33;3.00;;;;;21.77;45.29;101149.06;5070831;28;45317;-80
2022/08/28 01:55:06;;;;;;;;;5.33;4.33;;;;;21.85;45.65;101172.53;5073222;28;45400;-74
2022/08/28 01:57:32;;;;;;;;;3.00;3.00;;;;;21.78;45.54;101169.91;5069084;28;45550;-66
2022/08/28 01:59:58;;;;;;;;;5.67;4.33;;;;;21.37;45.70;101106.06;5073783;28;46641;-74
2022/08/28 02:02:24;;;;;;;;;4.33;4.33;;;;;21.71;45.55;101174.50;5072949;28;45436;-76
2022/08/28 02:04:52;;;;;;;;;4.00;4.00;;;;;21.60;46.17;101160.19;5072322;27;45451;-80
2022/08/28 02:07:17;;;;;;;;;4.00;4.00;;;;;21.64;46.13;101173.69;5072547;27;45574;-76
2022/08/28 02:09:43;;;;;;;;;3.00;3.00;;;;;21.41;46.33;101140.44;5080612;28;46888;-72
2022/08/28 02:12:09;;;;;;;;;6.00;5.67;;;;;21.38;46.44;101148.63;5073840;27;45302;-77
2022/08/28 02:14:34;;;;;;;;;3.33;3.33;;;;;21.26;46.46;101136.09;5077239;27;45445;-81
2022/08/28 02:17:00;;;;;;;;;6.67;4.00;;;;;21.53;46.56;101179.28;5085086;27;45165;-69
2022/08/28 02:19:25;;;;;;;;;5.00;5.00;;;;;21.51;46.60;101177.50;5073725;28;46087;-73
2022/08/28 02:21:50;;;;;;;;;5.00;5.00;;;;;21.20;46.61;101125.28;5074832;28;48854;-76
2022/08/28 02:24:16;;;;;;;;;3.67;3.00;;;;;21.20;46.72;101128.00;5075637;28;45557;-76
2022/08/28 02:26:43;;;;;;;;;7.67;5.67;;;;;21.28;46.58;101143.31;5075087;27;45822;-77
2022/08/28 02:29:09;;;;;;;;;5.00;4.00;;;;;21.15;46.95;101128.97;5090237;28;45421;-72
2022/08/28 02:31:35;;;;;;;;;5.67;5.67;;;;;21.37;46.98;101166.75;5090976;28;45130;-76
2022/08/28 02:34:00;;;;;;;;;3.67;3.67;;;;;21.40;47.09;101185.75;5081154;27;45533;-76
2022/08/28 02:36:26;;;;;;;;;3.67;3.67;;;;;21.32;46.91;101179.50;5076122;27;45278;-78
2022/08/28 02:38:51;;;;;;;;;4.33;3.00;;;;;21.15;47.19;101153.41;5077953;27;45456;-71
2022/08/28 02:41:17;;;;;;;;;6.00;5.00;;;;;21.24;46.99;101166.00;5081285;27;45256;-68
2022/08/28 02:43:42;;;;;;;;;2.00;2.00;;;;;21.28;47.05;101166.84;5072983;28;45630;-68
2022/08/28 02:46:08;;;;;;;;;4.67;2.33;;;;;21.13;47.32;101144.34;5074876;27;45602;-79
2022/08/28 02:48:35;;;;;;;;;3.33;2.00;;;;;20.67;47.07;101071.50;5080367;28;46108;-73
2022/08/28 02:51:04;;;;;;;;;4.00;3.00;;;;;21.23;47.65;101182.31;5083025;28;45410;-79
2022/08/28 02:53:30;;;;;;;;;4.67;4.67;;;;;20.94;47.66;101123.75;5079310;27;45415;-68
2022/08/28 02:55:56;;;;;;;;;4.00;4.00;;;;;21.15;47.55;101172.44;5078080;28;45644;-79
2022/08/28 02:58:23;;;;;;;;;3.67;3.67;;;;;21.16;47.83;101174.22;5073812;27;45698;-67
2022/08/28 03:00:48;;;;;;;;;5.00;5.00;;;;;21.04;48.14;101168.03;5068262;28;45349;-69
2022/08/28 03:03:14;;;;;;;;;3.33;3.33;;;;;21.02;48.15;101158.97;5076763;28;45476;-67
2022/08/28 03:05:40;;;;;;;;;3.00;3.00;;;;;20.77;48.06;101113.97;5077960;27;45399;-70
2022/08/28 03:08:05;;;;;;;;;3.33;3.00;;;;;20.86;48.20;101125.66;5080256;27;45313;-75
2022/08/28 03:10:31;;;;;;;;;8.67;4.00;;;;;21.06;48.02;101166.19;5079191;28;45788;-80
2022/08/28 03:12:56;;;;;;;;;4.33;4.00;;;;;20.98;48.46;101168.97;5080264;28;45240;-72
2022/08/28 03:15:22;;;;;;;;;4.33;3.00;;;;;20.96;48.31;101159.94;5080482;28;45563;-77
2022/08/28 03:17:47;;;;;;;;;3.67;3.67;;;;;20.99;48.36;101166.25;5075055;27;45499;-80
2022/08/28 03:20:14;;;;;;;;;4.67;3.33;;;;;20.98;48.42;101161.72;5077265;28;45565;-78
2022/08/28 03:25:24;;;;;;;;;3.33;3.33;;;;;20.73;48.40;101125.75;5074499;27;45658;-65
2022/08/28 03:27:50;;;;;;;;;3.00;3.00;;;;;20.97;48.72;101164.47;5071652;27;45602;-66
2022/08/28 03:30:17;;;;;;;;;5.00;5.00;;;;;20.83;48.90;101142.88;5074255;27;45639;-76
2022/08/28 03:32:42;;;;;;;;;7.00;4.00;;;;;20.92;48.75;101158.16;5075930;27;45425;-77
2022/08/28 03:35:08;;;;;;;;;4.33;4.33;;;;;20.87;48.62;101149.16;5074564;27;45392;-76
2022/08/28 03:37:34;;;;;;;;;6.33;4.67;;;;;20.94;49.04;101162.69;5075954;28;46648;-72
2022/08/28 03:40:00;;;;;;;;;4.00;4.00;;;;;20.91;49.08;101161.81;5076878;28;45598;-68
2022/08/28 03:42:25;;;;;;;;;4.00;3.00;;;;;20.93;48.63;101165.41;5074075;28;45584;-75
2022/08/28 03:44:51;;;;;;;;;9.00;5.00;;;;;20.68;48.95;101126.72;5077674;27;45480;-80
2022/08/28 03:47:16;;;;;;;;;4.33;4.33;;;;;20.67;48.88;101136.66;5075368;27;46112;-75
2022/08/28 03:49:44;;;;;;;;;4.33;4.33;;;;;20.58;49.41;101112.31;5077023;28;45610;-71
2022/08/28 03:52:10;;;;;;;;;5.00;5.00;;;;;20.31;48.86;101068.22;5073891;28;45454;-80
2022/08/28 03:54:35;;;;;;;;;6.33;6.33;;;;;20.56;49.04;101106.00;5074606;28;45537;-80
2022/08/28 03:57:00;;;;;;;;;6.33;3.00;;;;;20.79;49.05;101142.00;5074742;27;46444;-70
2022/08/28 03:59:27;;;;;;;;;3.00;3.00;;;;;20.84;49.18;101150.13;5072630;27;45461;-75
2022/08/28 04:01:53;;;;;;;;;4.33;4.33;;;;;20.60;49.17;101108.66;5074902;28;45479;-73
2022/08/28 04:04:19;;;;;;;;;4.67;4.33;;;;;20.86;48.85;101159.13;5073756;27;45572;-75
2022/08/28 04:06:45;;;;;;;;;3.00;3.00;;;;;20.74;49.33;101135.72;5074877;28;47088;-71
2022/08/28 04:09:10;;;;;;;;;4.33;4.00;;;;;20.48;49.40;101089.78;5076237;27;45510;-76
2022/08/28 04:11:37;;;;;;;;;5.33;4.33;;;;;20.37;49.50;101078.09;5075308;27;45373;-69
2022/08/28 04:14:02;;;;;;;;;5.00;5.00;;;;;20.80;49.72;101170.97;5075016;28;45461;-77
2022/08/28 04:16:27;;;;;;;;;3.67;3.67;;;;;20.41;49.56;101090.75;5072747;27;46440;-74
2022/08/28 04:18:53;;;;;;;;;3.33;3.33;;;;;20.80;49.47;101168.25;5074079;27;45471;-71
2022/08/28 04:21:27;;;;;;;;;4.33;4.33;;;;;20.63;49.73;101143.06;5069599;28;45544;-77
2022/08/28 04:23:54;;;;;;;;;3.67;3.33;;;;;20.60;49.36;101133.06;5076414;28;45953;-67
2022/08/28 04:26:21;;;;;;;;;4.00;4.00;;;;;20.77;49.61;101159.22;5079742;27;46070;-75
2022/08/28 04:28:48;;;;;;;;;3.33;3.33;;;;;20.85;49.57;101173.63;5074021;28;45385;-69
2022/08/28 04:31:15;;;;;;;;;4.00;4.00;;;;;20.86;49.53;101174.53;5073467;28;45572;-70
2022/08/28 04:33:40;;;;;;;;;3.00;3.00;;;;;20.82;49.82;101172.75;5074551;28;45412;-71
2022/08/28 04:36:14;;;;;;;;;3.33;3.00;;;;;20.65;49.81;101143.94;5074224;28;45453;-75
2022/08/28 04:38:40;;;;;;;;;4.00;4.00;;;;;20.85;49.75;101172.72;5068762;27;45279;-75
2022/08/28 04:41:07;;;;;;;;;4.00;3.67;;;;;20.86;49.60;101169.13;5076949;28;45424;-73
2022/08/28 04:43:36;;;;;;;;;3.33;3.00;;;;;20.38;50.03;101088.06;5073826;28;45644;-70
2022/08/28 04:46:07;;;;;;;;;3.67;3.67;;;;;20.85;49.73;101178.16;5073494;28;46826;-67
2022/08/28 04:48:33;;;;;;;;;5.00;5.00;;;;;20.04;49.94;101039.50;5074475;27;45528;-74
2022/08/28 04:50:59;;;;;;;;;4.33;4.00;;;;;20.13;50.35;101079.19;5072129;28;45346;-75
2022/08/28 04:53:24;;;;;;;;;5.33;4.00;;;;;20.51;50.07;101143.13;5071098;27;45420;-77
2022/08/28 04:55:51;;;;;;;;;6.00;4.67;;;;;20.82;49.89;101187.22;5075032;27;46114;-72
2022/08/28 04:58:18;;;;;;;;;4.00;4.00;;;;;20.79;50.26;101180.03;5069576;28;45494;-75
2022/08/28 05:00:48;;;;;;;;;6.67;5.00;;;;;20.78;49.93;101188.19;5076182;28;45389;-76
2022/08/28 05:03:16;;;;;;;;;9.33;4.00;;;;;20.71;50.29;101189.16;5067299;27;45490;-77
2022/08/28 05:05:51;;;;;;;;;4.00;3.67;;;;;20.76;50.28;101200.88;5077356;27;45483;-68
2022/08/28 05:08:18;;;;;;;;;6.00;4.00;;;;;20.32;50.47;101126.09;5076636;28;45520;-65
2022/08/28 05:10:45;;;;;;;;;8.00;7.67;;;;;20.64;50.42;101180.16;5067413;28;45277;-79
2022/08/28 05:13:11;;;;;;;;;5.00;5.00;;;;;20.59;50.51;101177.44;5075000;27;45733;-77
2022/08/28 05:15:41;;;;;;;;;3.33;3.33;;;;;20.59;50.55;101182.88;5069824;28;46439;-68
2022/08/28 05:18:07;;;;;;;;;3.00;3.00;;;;;20.68;50.61;101200.94;5079328;28;45377;-77
2022/08/28 05:20:41;;;;;;;;;8.00;4.00;;;;;20.66;50.64;101200.06;5068526;28;45499;-70
2022/08/28 05:23:08;;;;;;;;;4.67;3.00;;;;;20.64;50.70;101210.03;5073607;28;45392;-78
2022/08/28 05:25:39;;;;;;;;;5.00;4.00;;;;;20.62;50.82;101212.72;5073682;28;46271;-76
2022/08/28 05:28:06;;;;;;;;;3.67;3.67;;;;;20.60;50.68;101210.91;5071557;27;45329;-71
2022/08/28 05:30:32;;;;;;;;;5.00;4.33;;;;;20.52;51.07;101202.81;5066893;27;45549;-77
2022/08/28 05:32:58;;;;;;;;;4.00;4.00;;;;;20.57;51.26;101211.88;5074961;27;45449;-74
2022/08/28 05:35:24;;;;;;;;;5.00;4.33;;;;;20.56;51.28;101220.00;5073505;28;45499;-70
2022/08/28 05:37:51;;;;;;;;;7.00;4.33;;;;;20.54;51.38;101214.59;5072979;28;45559;-75
2022/08/28 05:40:17;;;;;;;;;5.33;4.00;;;;;20.56;51.17;101222.72;5068157;28;45567;-66
2022/08/28 05:42:43;;;;;;;;;3.00;2.67;;;;;20.28;51.55;101178.56;5072989;28;45318;-74
2022/08/28 05:45:08;;;;;;;;;5.00;5.00;;;;;20.54;51.52;101220.03;5074047;27;46280;-79
2022/08/28 05:47:34;;;;;;;;;4.33;4.33;;;;;20.41;51.57;101204.75;5073390;27;45570;-74
2022/08/28 05:49:59;;;;;;;;;6.67;5.33;;;;;20.60;51.55;101224.50;5073187;27;45440;-72
2022/08/28 05:52:25;;;;;;;;;7.00;5.00;;;;;20.58;51.46;101231.75;5074409;27;45585;-77
2022/08/28 05:54:50;;;;;;;;;4.33;4.00;;;;;20.51;51.45;101225.47;5074696;27;45654;-79
2022/08/28 05:57:16;;;;;;;;;3.67;3.33;;;;;20.04;51.75;101137.13;5076113;27;45538;-75
2022/08/28 05:59:41;;;;;;;;;4.67;4.00;;;;;20.38;52.05;101208.34;5074611;27;45423;-73
2022/08/28 06:02:06;;;;;;;;;5.00;4.67;;;;;20.49;51.61;101226.38;5081697;27;45349;-76
2022/08/28 06:04:32;;;;;;;;;8.67;5.00;;;;;20.59;51.91;101236.25;5080505;27;48109;-69
2022/08/28 06:06:57;;;;;;;;;4.67;4.00;;;;;20.59;51.69;101230.81;5081769;27;45492;-76
2022/08/28 06:09:25;;;;;;;;;3.67;3.67;;;;;20.55;51.58;101218.19;5074529;28;46007;-71
2022/08/28 06:11:54;;;;;;;;;10.33;6.67;;;;;20.22;51.97;101160.53;5076653;27;45526;-74
2022/08/28 06:14:19;;;;;;;;;7.00;4.00;;;;;20.58;52.04;101229.03;5090961;27;46144;-70
2022/08/28 06:16:48;;;;;;;;;4.33;4.33;;;;;20.43;51.82;101205.63;5075068;28;45825;-75
2022/08/28 06:19:15;;;;;;;;;5.00;5.00;;;;;20.57;52.12;101228.16;5074920;28;45430;-79
2022/08/28 06:21:41;;;;;;;;;6.00;4.33;;;;;20.56;51.62;101233.59;5077537;28;45414;-72
2022/08/28 06:24:08;;;;;;;;;6.00;5.00;;;;;20.60;52.01;101238.06;5076292;28;46125;-78
2022/08/28 06:26:34;;;;;;;;;4.00;4.00;;;;;20.57;52.14;101230.88;5074614;28;45773;-76
2022/08/28 06:29:01;;;;;;;;;3.33;3.00;;;;;20.27;52.05;101187.63;5077617;27;45681;-67
2022/08/28 06:31:27;;;;;;;;;7.67;6.00;;;;;20.53;52.37;101234.50;5071941;28;45679;-77
2022/08/28 06:33:55;;;;;;;;;4.00;4.00;;;;;20.37;52.60;101205.66;5073928;28;57975;-69
2022/08/28 06:36:22;;;;;;;;;6.00;5.00;;;;;20.54;52.55;101246.25;5074382;27;45227;-77
2022/08/28 06:38:47;;;;;;;;;7.67;4.33;;;;;20.16;52.73;101168.69;5076272;27;45480;-80
2022/08/28 06:41:14;;;;;;;;;5.00;5.00;;;;;20.13;52.51;101166.00;5075956;28;45513;-77
2022/08/28 06:43:39;;;;;;;;;5.00;4.00;;;;;20.58;53.05;101240.78;5064215;28;48274;-81
2022/08/28 06:46:05;;;;;;;;;4.33;3.67;;;;;20.30;52.53;101187.63;5075545;27;45562;-78
2022/08/28 06:48:30;;;;;;;;;4.33;4.33;;;;;20.56;52.62;101239.00;5073303;27;45660;-78
2022/08/28 06:50:58;;;;;;;;;5.67;5.33;;;;;20.51;52.87;101230.91;5076075;27;45294;-67
2022/08/28 06:53:26;;;;;;;;;6.00;5.33;;;;;20.62;53.93;101244.38;5079815;27;45934;-67
2022/08/28 06:56:25;;;;;;;;;8.00;6.00;;;;;20.64;53.33;101229.03;5086766;27;45384;-75
2022/08/28 06:58:52;;;;;;;;;6.33;5.00;;;;;20.69;52.80;101239.84;5088535;28;45323;-74
2022/08/28 07:01:22;;;;;;;;;4.67;4.67;;;;;20.67;53.08;101244.38;5086747;28;45291;-78
2022/08/28 07:03:50;;;;;;;;;4.67;4.67;;;;;20.65;53.04;101251.66;5083535;27;45382;-66
2022/08/28 07:06:15;;;;;;;;;5.00;5.00;;;;;20.70;53.57;101242.53;5081015;27;45413;-67
2022/08/28 07:08:43;;;;;;;;;6.00;4.33;;;;;20.73;52.94;101245.25;5095047;28;45139;-75
2022/08/28 07:11:17;;;;;;;;;5.67;5.67;;;;;20.73;53.21;101241.63;5094576;27;45057;-76
2022/08/28 07:13:44;;;;;;;;;6.33;4.67;;;;;20.72;53.20;101227.16;5072477;28;46442;-66
2022/08/28 07:16:11;;;;;;;;;5.00;3.33;;;;;20.12;52.87;101123.53;5076842;28;45456;-68
2022/08/28 07:18:38;;;;;;;;;4.00;4.00;;;;;20.79;52.75;101249.75;5073356;28;45424;-82
2022/08/28 07:21:04;;;;;;;;;5.00;4.33;;;;;20.55;52.72;101193.78;5077242;28;45451;-69
2022/08/28 07:23:32;;;;;;;;;5.67;4.00;;;;;20.88;52.52;101251.47;5091367;27;45790;-79
2022/08/28 07:25:57;;;;;;;;;5.00;5.00;;;;;20.93;52.77;101260.47;5094056;27;45019;-73
2022/08/28 07:28:23;;;;;;;;;4.67;4.67;;;;;20.77;52.21;101219.88;5094271;27;45195;-79
2022/08/28 07:31:19;;;;;;;;;5.00;5.00;;;;;21.01;52.61;101264.03;5097658;27;45219;-69
2022/08/28 07:33:45;;;;;;;;;6.67;6.67;;;;;21.07;52.45;101261.28;5087824;27;45938;-75
2022/08/28 07:36:16;;;;;;;;;3.67;3.67;;;;;20.82;52.39;101205.34;5080082;27;46010;-75
2022/08/28 07:38:42;;;;;;;;;4.67;3.67;;;;;20.98;52.05;101223.31;5083086;27;45477;-77
2022/08/28 07:41:18;;;;;;;;;5.67;5.67;;;;;21.21;51.86;101255.69;5086312;28;45279;-70
2022/08/28 07:46:29;;;;;;;;;5.00;5.00;;;;;21.35;51.64;101269.16;5077646;27;45489;-77
2022/08/28 07:48:57;;;;;;;;;8.67;8.00;;;;;21.30;51.86;101247.47;5081991;27;45457;-80
2022/08/28 07:51:23;;;;;;;;;6.67;6.00;;;;;21.33;51.15;101235.66;5073739;27;45677;-75
2022/08/28 07:53:49;;;;;;;;;5.00;5.00;;;;;21.48;51.09;101265.44;5076624;28;46655;-81
2022/08/28 07:56:14;;;;;;;;;4.33;4.33;;;;;21.27;51.01;101214.00;5077078;27;45400;-78
2022/08/28 07:58:39;;;;;;;;;6.33;6.33;;;;;21.60;50.83;101260.78;5076517;27;45485;-73
2022/08/28 08:01:06;;;;;;;;;3.67;3.67;;;;;21.55;51.01;101260.84;5077117;27;45347;-77
2022/08/28 08:03:31;;;;;;;;;6.67;5.67;;;;;21.64;50.73;101263.44;5075581;27;46137;-67
2022/08/28 08:06:01;;;;;;;;;6.00;6.00;;;;;21.74;50.79;101272.38;5076048;27;45452;-65
2022/08/28 08:08:27;;;;;;;;;7.33;6.00;;;;;21.69;50.42;101255.22;5081507;27;45766;-74
2022/08/28 08:11:03;;;;;;;;;9.00;5.00;;;;;21.73;50.63;101270.59;5078259;27;45511;-66
2022/08/28 08:13:30;;;;;;;;;6.33;5.00;;;;;21.78;50.35;101270.53;5076523;27;46141;-73
2022/08/28 08:16:03;;;;;;;;;6.00;5.33;;;;;21.83;50.37;101266.84;5078094;27;45456;-80
2022/08/28 08:18:29;;;;;;;;;5.67;5.00;;;;;21.88;50.46;101272.25;5078328;27;45488;-74
2022/08/28 08:20:54;;;;;;;;;7.67;5.00;;;;;21.62;49.88;101235.38;5074260;28;45402;-75
2022/08/28 08:23:20;;;;;;;;;10.33;6.67;;;;;21.88;49.96;101248.66;5074967;27;46046;-75
2022/08/28 08:26:00;;;;;;;;;9.00;5.33;;;;;21.87;49.51;101230.53;5075944;28;45561;-68
2022/08/28 08:28:26;;;;;;;;;6.00;5.33;;;;;22.21;49.32;101270.91;5074851;27;45975;-76
2022/08/28 08:31:06;;;;;;;;;6.67;6.00;;;;;21.92;49.51;101211.41;5076925;28;45445;-80
2022/08/28 08:33:31;;;;;;;;;4.00;3.00;;;;;22.36;49.16;101267.09;5075740;27;46197;-80
2022/08/28 08:35:57;;;;;;;;;7.33;6.33;;;;;21.93;48.83;101183.31;5080134;27;45728;-81
2022/08/28 08:38:23;;;;;;;;;6.00;6.00;;;;;22.34;48.88;101251.69;5077802;27;45445;-77
2022/08/28 08:40:49;;;;;;;;;5.67;5.00;;;;;22.59;48.43;101276.78;5076286;28;45617;-81
2022/08/28 08:43:18;;;;;;;;;4.33;4.00;;;;;22.69;48.70;101283.88;5073944;27;46657;-78
2022/08/28 08:45:46;;;;;;;;;4.33;4.00;;;;;22.79;48.62;101279.19;5076847;27;45563;-72
2022/08/28 08:48:42;;;;;;;;;8.00;4.67;;;;;22.93;47.89;101273.50;5079113;27;45448;-75
2022/08/28 08:51:24;;;;;;;;;5.33;4.67;;;;;22.28;47.76;101132.91;5059177;27;45338;-75
2022/08/28 08:54:01;;;;;;;;;7.00;7.00;;;;;23.21;47.37;101275.78;5076769;27;45413;-80
2022/08/28 08:56:26;;;;;;;;;7.33;4.00;;;;;23.29;47.01;101263.81;5074738;27;45551;-68
2022/08/28 08:58:53;;;;;;;;;8.00;5.67;;;;;23.28;47.01;101251.13;5075601;27;45294;-75
2022/08/28 09:01:32;;;;;;;;;9.67;8.00;;;;;23.31;46.80;101253.81;5089277;27;45611;-74
2022/08/28 09:04:24;;;;;;;;;6.00;4.33;;;;;23.44;46.63;101256.28;5094256;27;45925;-80
2022/08/28 09:07:00;;;;;;;;;11.67;8.00;;;;;23.53;46.54;101257.00;5087415;27;45417;-71
2022/08/28 09:09:31;;;;;;;;;6.33;5.33;;;;;23.59;46.05;101260.53;5090863;28;45275;-76
2022/08/28 09:12:02;;;;;;;;;6.33;6.33;;;;;23.66;45.91;101251.28;5082193;27;45467;-79
2022/08/28 09:14:52;;;;;;;;;8.67;7.33;;;;;23.78;45.69;101261.09;5086355;27;45783;-79
2022/08/28 09:17:22;;;;;;;;;11.67;9.33;;;;;23.81;45.25;101247.34;5077299;27;45477;-75
2022/08/28 09:19:48;;;;;;;;;10.00;6.33;;;;;23.69;45.17;101211.25;5084893;28;46039;-73
2022/08/28 09:22:14;;;;;;;;;11.67;8.33;;;;;23.92;44.91;101240.81;5092826;27;44959;-79
2022/08/28 09:24:40;;;;;;;;;9.67;8.00;;;;;24.10;45.12;101252.25;5076907;28;45628;-67
2022/08/28 09:27:20;;;;;;;;;10.00;7.00;;;;;24.22;44.67;101248.34;5086584;27;45232;-73
2022/08/28 09:30:01;;;;;;;;;6.00;6.00;;;;;24.27;44.36;101243.69;5083662;28;45353;-82
2022/08/28 09:32:29;;;;;;;;;13.33;9.00;;;;;24.41;44.05;101252.44;5088892;28;45058;-67
2022/08/28 09:35:05;;;;;;;;;11.00;9.00;;;;;24.31;44.19;101228.13;5087897;27;45331;-77
2022/08/28 09:37:33;;;;;;;;;8.00;6.67;;;;;24.57;44.00;101249.41;5086276;28;45380;-68
2022/08/28 09:40:26;;;;;;;;;8.00;8.00;;;;;24.66;43.97;101251.91;5081911;27;45380;-75
2022/08/28 09:43:30;;;;;;;;;12.67;9.00;;;;;24.77;43.15;101249.81;5069811;27;45817;-69
2022/08/28 09:45:58;;;;;;;;;13.67;11.67;;;;;24.87;43.31;101247.75;5072919;28;46295;-75
2022/08/28 09:48:37;;;;;;;;;14.00;12.00;;;;;24.60;43.22;101186.47;5072791;28;45585;-74
2022/08/28 09:51:37;;;;;;;;;15.00;9.33;;;;;24.94;42.70;101243.91;5072471;27;45565;-71
2022/08/28 09:54:07;;;;;;;;;12.67;10.00;;;;;25.01;42.84;101242.84;5070441;27;45669;-68
2022/08/28 09:56:39;;;;;;;;;9.67;8.67;;;;;24.90;42.18;101212.16;5071784;28;46334;-73
2022/08/28 09:59:07;;;;;;;;;8.33;8.33;;;;;25.16;42.16;101238.81;5070793;27;45511;-73
2022/08/28 10:02:19;;;;;;;;;11.33;10.00;;;;;25.18;42.37;101239.66;5071432;28;45493;-72
2022/08/28 10:04:53;;;;;;;;;13.33;11.00;;;;;25.17;42.16;101221.44;5071755;27;45497;-73
2022/08/28 10:07:36;;;;;;;;;10.00;9.00;;;;;25.24;41.71;101240.44;5072025;28;45672;-70
2022/08/28 10:10:22;;;;;;;;;8.00;7.00;;;;;24.79;42.48;101162.34;5069668;28;46259;-76
2022/08/28 10:13:22;;;;;;;;;9.33;6.00;;;;;25.27;42.48;101223.97;5065927;27;45458;-70
2022/08/28 10:16:19;;;;;;;;;11.33;7.67;;;;;25.38;41.71;101230.94;5073418;28;45586;-68
2022/08/28 10:18:53;;;;;;;;;10.00;8.67;;;;;25.47;41.44;101231.63;5071639;28;47592;-71
2022/08/28 10:21:48;;;;;;;;;6.67;6.33;;;;;25.50;41.27;101224.22;5072678;27;45448;-68
2022/08/28 10:24:30;;;;;;;;;7.67;7.67;;;;;25.44;40.98;101191.59;5074049;28;45499;-70
2022/08/28 10:27:19;;;;;;;;;14.00;12.33;;;;;25.59;40.99;101213.97;5073284;28;45453;-69
2022/08/28 10:29:57;;;;;;;;;7.67;7.00;;;;;25.75;40.89;101229.91;5068144;28;46748;-67
2022/08/28 10:32:41;;;;;;;;;10.67;9.00;;;;;25.86;40.60;101232.31;5072651;27;45292;-68
2022/08/28 10:35:31;;;;;;;;;7.00;7.00;;;;;25.93;40.39;101224.81;5073100;28;45434;-70
2022/08/28 10:38:02;;;;;;;;;11.00;10.67;;;;;25.89;40.39;101201.22;5068647;28;45392;-70
2022/08/28 10:40:52;;;;;;;;;9.00;9.00;;;;;26.12;40.31;101230.69;5073637;28;46426;-67
2022/08/28 10:43:43;;;;;;;;;7.00;7.00;;;;;26.13;39.94;101224.25;5074437;27;45436;-68
2022/08/28 10:46:41;;;;;;;;;7.00;7.00;;;;;26.18;39.98;101229.59;5063510;27;45757;-69
2022/08/28 10:49:09;;;;;;;;;5.00;4.33;;;;;26.17;39.39;101225.97;5076634;28;45419;-73
2022/08/28 10:51:47;;;;;;;;;12.67;9.67;;;;;25.97;39.78;101206.50;5076113;28;45338;-76
2022/08/28 10:54:22;;;;;;;;;10.00;9.00;;;;;25.83;39.83;101183.13;5073481;28;45295;-73
2022/08/28 10:56:57;;;;;;;;;11.00;11.00;;;;;25.94;40.22;101208.34;5074065;28;45268;-78
2022/08/28 10:59:25;;;;;;;;;12.33;8.33;;;;;26.07;40.11;101229.94;5079659;27;45252;-75
2022/08/28 11:01:51;;;;;;;;;8.33;6.67;;;;;26.03;39.83;101223.63;5078699;28;45621;-73
2022/08/28 11:04:22;;;;;;;;;10.67;7.00;;;;;25.96;40.18;101216.56;5067127;28;45441;-72
2022/08/28 11:06:59;;;;;;;;;6.67;6.67;;;;;25.76;40.05;101176.06;5076657;27;45402;-69
2022/08/28 11:09:34;;;;;;;;;7.67;7.00;;;;;26.06;40.18;101223.53;5076383;27;45294;-72
2022/08/28 11:12:05;;;;;;;;;7.00;5.67;;;;;26.12;40.46;101227.94;5075921;27;46004;-70
2022/08/28 11:14:37;;;;;;;;;6.33;6.00;;;;;26.10;39.98;101196.94;5076406;27;45509;-74
2022/08/28 11:17:06;;;;;;;;;6.67;5.67;;;;;26.14;39.72;101212.34;5075981;27;45446;-69
2022/08/28 11:19:44;;;;;;;;;7.00;6.33;;;;;26.23;39.69;101214.81;5075888;27;45293;-69
2022/08/28 11:22:15;;;;;;;;;6.33;5.00;;;;;26.26;39.16;101217.44;5069442;27;45430;-72
2022/08/28 11:24:55;;;;;;;;;6.00;6.00;;;;;26.28;39.25;101215.56;5070171;27;45546;-72
2022/08/28 11:27:28;;;;;;;;;6.33;6.00;;;;;26.33;39.28;101212.66;5076227;28;45454;-69
2022/08/28 11:30:09;;;;;;;;;7.00;6.00;;;;;26.39;39.08;101214.31;5076142;27;45453;-74
2022/08/28 11:32:40;;;;;;;;;8.33;6.67;;;;;26.42;39.47;101214.22;5075771;27;45256;-72
2022/08/28 11:35:25;;;;;;;;;13.00;8.33;;;;;26.49;39.50;101205.72;5074847;27;45415;-71
2022/08/28 11:37:53;;;;;;;;;5.00;4.33;;;;;26.60;38.94;101197.19;5069457;28;45376;-73
2022/08/28 11:40:49;;;;;;;;;6.33;5.00;;;;;26.71;38.58;101193.19;5075725;28;45452;-77
2022/08/28 11:43:14;;;;;;;;;6.00;4.33;;;;;26.80;38.42;101196.53;5075522;27;47033;-75